sensor_id;sensor_type;location;lat;lon;timestamp;P1;durP1;ratioP1;P2;durP2;ratioP2
20776;SDS011;10548;47.504;8.248;2023-03-19T00:00:45;6.60;;;3.90;;
20776;SDS011;10548;47.504;8.248;2023-03-19T00:03:12;8.63;;;4.17;;
20776;SDS011;10548;47.504;8.248;2023-03-19T00:05:39;7.90;;;3.90;;
20776;SDS011;10548;47.504;8.248;2023-03-19T00:08:07;8.47;;;4.03;;
20776;SDS011;10548;47.504;8.248;2023-03-19T00:10:37;7.90;;;4.40;;
20776;SDS011;10548;47.504;8.248;2023-03-19T00:13:05;10.10;;;4.47;;
20776;SDS011;10548;47.504;8.248;2023-03-19T00:15:32;6.97;;;3.80;;
20776;SDS011;10548;47.504;8.248;2023-03-19T00:18:00;9.47;;;4.30;;
20776;SDS011;10548;47.504;8.248;2023-03-19T00:20:27;7.50;;;3.83;;
20776;SDS011;10548;47.504;8.248;2023-03-19T00:22:54;11.63;;;4.23;;
20776;SDS011;10548;47.504;8.248;2023-03-19T00:25:22;8.43;;;4.20;;
20776;SDS011;10548;47.504;8.248;2023-03-19T00:27:49;11.57;;;4.27;;
20776;SDS011;10548;47.504;8.248;2023-03-19T00:30:18;11.23;;;4.53;;
20776;SDS011;10548;47.504;8.248;2023-03-19T00:32:46;9.17;;;4.30;;
20776;SDS011;10548;47.504;8.248;2023-03-19T00:35:14;8.77;;;4.63;;
20776;SDS011;10548;47.504;8.248;2023-03-19T00:37:41;9.43;;;4.77;;
20776;SDS011;10548;47.504;8.248;2023-03-19T00:40:09;8.60;;;4.30;;
20776;SDS011;10548;47.504;8.248;2023-03-19T00:42:37;7.00;;;4.17;;
20776;SDS011;10548;47.504;8.248;2023-03-19T00:45:05;9.13;;;4.13;;
20776;SDS011;10548;47.504;8.248;2023-03-19T00:47:33;9.33;;;4.50;;
20776;SDS011;10548;47.504;8.248;2023-03-19T00:50:00;8.40;;;4.60;;
20776;SDS011;10548;47.504;8.248;2023-03-19T00:52:28;6.97;;;4.00;;
20776;SDS011;10548;47.504;8.248;2023-03-19T00:54:55;9.37;;;4.67;;
20776;SDS011;10548;47.504;8.248;2023-03-19T00:57:22;7.30;;;4.30;;
20776;SDS011;10548;47.504;8.248;2023-03-19T00:59:50;9.97;;;4.77;;
20776;SDS011;10548;47.504;8.248;2023-03-19T01:02:17;8.40;;;4.07;;
20776;SDS011;10548;47.504;8.248;2023-03-19T01:04:48;9.53;;;4.80;;
20776;SDS011;10548;47.504;8.248;2023-03-19T01:07:15;10.60;;;4.63;;
20776;SDS011;10548;47.504;8.248;2023-03-19T01:09:43;9.10;;;4.00;;
20776;SDS011;10548;47.504;8.248;2023-03-19T01:12:10;8.17;;;4.80;;
20776;SDS011;10548;47.504;8.248;2023-03-19T01:14:37;7.57;;;4.93;;
20776;SDS011;10548;47.504;8.248;2023-03-19T01:17:05;7.73;;;4.70;;
20776;SDS011;10548;47.504;8.248;2023-03-19T01:19:32;12.93;;;4.63;;
20776;SDS011;10548;47.504;8.248;2023-03-19T01:21:59;9.33;;;4.73;;
20776;SDS011;10548;47.504;8.248;2023-03-19T01:24:29;7.03;;;4.77;;
20776;SDS011;10548;47.504;8.248;2023-03-19T01:26:57;12.03;;;4.30;;
20776;SDS011;10548;47.504;8.248;2023-03-19T01:29:28;10.90;;;5.07;;
20776;SDS011;10548;47.504;8.248;2023-03-19T01:31:59;8.37;;;5.03;;
20776;SDS011;10548;47.504;8.248;2023-03-19T01:34:52;13.07;;;5.40;;
20776;SDS011;10548;47.504;8.248;2023-03-19T01:37:20;10.93;;;5.10;;
20776;SDS011;10548;47.504;8.248;2023-03-19T01:39:47;10.60;;;4.87;;
20776;SDS011;10548;47.504;8.248;2023-03-19T01:42:14;9.77;;;5.20;;
20776;SDS011;10548;47.504;8.248;2023-03-19T01:44:50;8.47;;;5.30;;
20776;SDS011;10548;47.504;8.248;2023-03-19T01:47:35;11.13;;;5.33;;
20776;SDS011;10548;47.504;8.248;2023-03-19T01:50:24;10.83;;;5.30;;
20776;SDS011;10548;47.504;8.248;2023-03-19T01:53:34;12.80;;;5.40;;
20776;SDS011;10548;47.504;8.248;2023-03-19T01:56:13;10.30;;;4.87;;
20776;SDS011;10548;47.504;8.248;2023-03-19T01:58:57;10.77;;;5.57;;
20776;SDS011;10548;47.504;8.248;2023-03-19T02:01:55;10.90;;;5.47;;
20776;SDS011;10548;47.504;8.248;2023-03-19T02:04:26;10.93;;;5.23;;
20776;SDS011;10548;47.504;8.248;2023-03-19T02:06:57;10.57;;;5.23;;
20776;SDS011;10548;47.504;8.248;2023-03-19T02:09:27;10.37;;;5.43;;
20776;SDS011;10548;47.504;8.248;2023-03-19T02:11:55;11.13;;;5.40;;
20776;SDS011;10548;47.504;8.248;2023-03-19T02:14:23;11.50;;;5.47;;
20776;SDS011;10548;47.504;8.248;2023-03-19T02:16:50;11.53;;;5.60;;
20776;SDS011;10548;47.504;8.248;2023-03-19T02:22:34;10.70;;;6.00;;
20776;SDS011;10548;47.504;8.248;2023-03-19T02:25:15;9.67;;;5.77;;
20776;SDS011;10548;47.504;8.248;2023-03-19T02:27:50;11.47;;;5.63;;
20776;SDS011;10548;47.504;8.248;2023-03-19T02:30:21;10.40;;;5.53;;
20776;SDS011;10548;47.504;8.248;2023-03-19T02:32:51;13.23;;;6.43;;
20776;SDS011;10548;47.504;8.248;2023-03-19T02:35:19;11.43;;;5.33;;
20776;SDS011;10548;47.504;8.248;2023-03-19T02:37:46;16.23;;;6.47;;
20776;SDS011;10548;47.504;8.248;2023-03-19T02:40:15;15.43;;;6.30;;
20776;SDS011;10548;47.504;8.248;2023-03-19T02:42:48;12.87;;;5.80;;
20776;SDS011;10548;47.504;8.248;2023-03-19T02:45:15;11.07;;;5.80;;
20776;SDS011;10548;47.504;8.248;2023-03-19T02:47:42;13.47;;;5.70;;
20776;SDS011;10548;47.504;8.248;2023-03-19T02:50:10;10.23;;;5.77;;
20776;SDS011;10548;47.504;8.248;2023-03-19T02:52:37;12.37;;;5.73;;
20776;SDS011;10548;47.504;8.248;2023-03-19T02:55:05;9.63;;;5.83;;
20776;SDS011;10548;47.504;8.248;2023-03-19T02:57:33;8.83;;;5.33;;
20776;SDS011;10548;47.504;8.248;2023-03-19T03:00:00;13.77;;;6.53;;
20776;SDS011;10548;47.504;8.248;2023-03-19T03:02:28;16.63;;;5.80;;
20776;SDS011;10548;47.504;8.248;2023-03-19T03:04:55;10.20;;;5.30;;
20776;SDS011;10548;47.504;8.248;2023-03-19T03:07:24;9.17;;;5.10;;
20776;SDS011;10548;47.504;8.248;2023-03-19T03:09:51;12.07;;;5.80;;
20776;SDS011;10548;47.504;8.248;2023-03-19T03:12:18;13.70;;;6.00;;
20776;SDS011;10548;47.504;8.248;2023-03-19T03:14:45;14.40;;;5.87;;
20776;SDS011;10548;47.504;8.248;2023-03-19T03:17:12;9.17;;;4.93;;
20776;SDS011;10548;47.504;8.248;2023-03-19T03:19:40;11.43;;;6.20;;
20776;SDS011;10548;47.504;8.248;2023-03-19T03:22:07;8.53;;;4.97;;
20776;SDS011;10548;47.504;8.248;2023-03-19T03:24:35;12.10;;;5.40;;
20776;SDS011;10548;47.504;8.248;2023-03-19T03:27:02;10.53;;;5.23;;
20776;SDS011;10548;47.504;8.248;2023-03-19T03:29:29;9.90;;;5.50;;
20776;SDS011;10548;47.504;8.248;2023-03-19T03:31:56;11.97;;;5.70;;
20776;SDS011;10548;47.504;8.248;2023-03-19T03:34:24;15.37;;;5.50;;
20776;SDS011;10548;47.504;8.248;2023-03-19T03:36:51;13.67;;;5.30;;
20776;SDS011;10548;47.504;8.248;2023-03-19T03:39:18;14.07;;;5.57;;
20776;SDS011;10548;47.504;8.248;2023-03-19T03:41:45;12.93;;;5.47;;
20776;SDS011;10548;47.504;8.248;2023-03-19T03:44:13;10.60;;;5.43;;
20776;SDS011;10548;47.504;8.248;2023-03-19T03:46:40;10.33;;;4.90;;
20776;SDS011;10548;47.504;8.248;2023-03-19T03:49:08;10.00;;;5.53;;
20776;SDS011;10548;47.504;8.248;2023-03-19T03:51:36;8.93;;;5.40;;
20776;SDS011;10548;47.504;8.248;2023-03-19T03:54:03;9.20;;;4.70;;
20776;SDS011;10548;47.504;8.248;2023-03-19T03:56:31;8.13;;;4.57;;
20776;SDS011;10548;47.504;8.248;2023-03-19T03:58:59;10.50;;;4.67;;
20776;SDS011;10548;47.504;8.248;2023-03-19T04:01:26;10.23;;;4.60;;
20776;SDS011;10548;47.504;8.248;2023-03-19T04:03:55;10.90;;;4.30;;
20776;SDS011;10548;47.504;8.248;2023-03-19T04:06:22;10.23;;;4.50;;
20776;SDS011;10548;47.504;8.248;2023-03-19T04:09:10;9.43;;;4.70;;
20776;SDS011;10548;47.504;8.248;2023-03-19T04:11:38;11.87;;;4.80;;
20776;SDS011;10548;47.504;8.248;2023-03-19T04:14:06;7.43;;;4.87;;
20776;SDS011;10548;47.504;8.248;2023-03-19T04:16:36;8.73;;;4.50;;
20776;SDS011;10548;47.504;8.248;2023-03-19T04:19:03;9.17;;;4.30;;
20776;SDS011;10548;47.504;8.248;2023-03-19T04:21:33;8.83;;;4.57;;
20776;SDS011;10548;47.504;8.248;2023-03-19T04:24:00;8.53;;;4.20;;
20776;SDS011;10548;47.504;8.248;2023-03-19T04:26:27;9.90;;;4.50;;
20776;SDS011;10548;47.504;8.248;2023-03-19T04:28:56;10.10;;;4.90;;
20776;SDS011;10548;47.504;8.248;2023-03-19T04:31:23;11.07;;;4.40;;
20776;SDS011;10548;47.504;8.248;2023-03-19T04:33:51;11.07;;;4.17;;
20776;SDS011;10548;47.504;8.248;2023-03-19T04:36:19;8.40;;;4.67;;
20776;SDS011;10548;47.504;8.248;2023-03-19T04:38:46;10.27;;;4.73;;
20776;SDS011;10548;47.504;8.248;2023-03-19T04:41:14;7.87;;;4.57;;
20776;SDS011;10548;47.504;8.248;2023-03-19T04:43:52;8.17;;;4.20;;
20776;SDS011;10548;47.504;8.248;2023-03-19T04:46:20;8.23;;;4.63;;
20776;SDS011;10548;47.504;8.248;2023-03-19T04:48:48;10.50;;;4.40;;
20776;SDS011;10548;47.504;8.248;2023-03-19T04:51:16;8.37;;;4.60;;
20776;SDS011;10548;47.504;8.248;2023-03-19T04:53:44;10.07;;;5.07;;
20776;SDS011;10548;47.504;8.248;2023-03-19T04:56:11;9.73;;;4.53;;
20776;SDS011;10548;47.504;8.248;2023-03-19T04:58:42;9.53;;;4.93;;
20776;SDS011;10548;47.504;8.248;2023-03-19T05:01:10;12.97;;;4.70;;
20776;SDS011;10548;47.504;8.248;2023-03-19T05:03:59;8.67;;;4.90;;
20776;SDS011;10548;47.504;8.248;2023-03-19T05:06:27;13.47;;;5.13;;
20776;SDS011;10548;47.504;8.248;2023-03-19T05:08:54;10.23;;;4.63;;
20776;SDS011;10548;47.504;8.248;2023-03-19T05:11:22;7.10;;;4.27;;
20776;SDS011;10548;47.504;8.248;2023-03-19T05:14:02;8.00;;;4.93;;
20776;SDS011;10548;47.504;8.248;2023-03-19T05:16:44;12.37;;;5.60;;
20776;SDS011;10548;47.504;8.248;2023-03-19T05:19:12;8.93;;;5.00;;
20776;SDS011;10548;47.504;8.248;2023-03-19T05:21:39;10.33;;;5.17;;
20776;SDS011;10548;47.504;8.248;2023-03-19T05:24:06;12.30;;;5.70;;
20776;SDS011;10548;47.504;8.248;2023-03-19T05:26:35;9.10;;;4.80;;
20776;SDS011;10548;47.504;8.248;2023-03-19T05:29:21;8.90;;;5.10;;
20776;SDS011;10548;47.504;8.248;2023-03-19T05:32:10;8.17;;;4.87;;
20776;SDS011;10548;47.504;8.248;2023-03-19T05:34:38;9.93;;;5.30;;
20776;SDS011;10548;47.504;8.248;2023-03-19T05:37:06;11.80;;;5.93;;
20776;SDS011;10548;47.504;8.248;2023-03-19T05:39:34;11.80;;;5.57;;
20776;SDS011;10548;47.504;8.248;2023-03-19T05:42:05;9.10;;;5.43;;
20776;SDS011;10548;47.504;8.248;2023-03-19T05:44:33;12.50;;;5.57;;
20776;SDS011;10548;47.504;8.248;2023-03-19T05:47:11;11.03;;;5.83;;
20776;SDS011;10548;47.504;8.248;2023-03-19T05:49:43;10.27;;;5.70;;
20776;SDS011;10548;47.504;8.248;2023-03-19T05:52:10;11.90;;;6.20;;
20776;SDS011;10548;47.504;8.248;2023-03-19T05:54:38;12.97;;;6.63;;
20776;SDS011;10548;47.504;8.248;2023-03-19T05:57:11;12.07;;;5.57;;
20776;SDS011;10548;47.504;8.248;2023-03-19T06:00:01;17.00;;;6.63;;
20776;SDS011;10548;47.504;8.248;2023-03-19T06:02:47;11.27;;;6.23;;
20776;SDS011;10548;47.504;8.248;2023-03-19T06:05:43;9.00;;;5.57;;
20776;SDS011;10548;47.504;8.248;2023-03-19T06:08:30;11.07;;;5.47;;
20776;SDS011;10548;47.504;8.248;2023-03-19T06:11:21;10.30;;;5.27;;
20776;SDS011;10548;47.504;8.248;2023-03-19T06:14:00;12.83;;;5.80;;
20776;SDS011;10548;47.504;8.248;2023-03-19T06:16:32;10.77;;;5.53;;
20776;SDS011;10548;47.504;8.248;2023-03-19T06:19:00;10.10;;;5.57;;
20776;SDS011;10548;47.504;8.248;2023-03-19T06:21:27;11.10;;;5.70;;
20776;SDS011;10548;47.504;8.248;2023-03-19T06:23:59;10.20;;;5.70;;
20776;SDS011;10548;47.504;8.248;2023-03-19T06:26:31;15.57;;;5.87;;
20776;SDS011;10548;47.504;8.248;2023-03-19T06:29:02;9.50;;;5.30;;
20776;SDS011;10548;47.504;8.248;2023-03-19T06:31:31;10.43;;;5.77;;
20776;SDS011;10548;47.504;8.248;2023-03-19T06:34:01;9.07;;;5.30;;
20776;SDS011;10548;47.504;8.248;2023-03-19T06:36:36;14.87;;;5.90;;
20776;SDS011;10548;47.504;8.248;2023-03-19T06:39:04;10.97;;;6.00;;
20776;SDS011;10548;47.504;8.248;2023-03-19T06:41:31;10.90;;;5.30;;
20776;SDS011;10548;47.504;8.248;2023-03-19T06:44:10;10.70;;;5.43;;
20776;SDS011;10548;47.504;8.248;2023-03-19T06:46:37;10.10;;;4.90;;
20776;SDS011;10548;47.504;8.248;2023-03-19T06:49:04;11.73;;;5.73;;
20776;SDS011;10548;47.504;8.248;2023-03-19T06:51:32;7.60;;;5.17;;
20776;SDS011;10548;47.504;8.248;2023-03-19T06:53:59;11.07;;;4.80;;
20776;SDS011;10548;47.504;8.248;2023-03-19T06:56:26;7.70;;;4.47;;
20776;SDS011;10548;47.504;8.248;2023-03-19T06:58:54;10.80;;;5.27;;
20776;SDS011;10548;47.504;8.248;2023-03-19T07:01:21;6.57;;;4.37;;
20776;SDS011;10548;47.504;8.248;2023-03-19T07:03:49;14.00;;;4.90;;
20776;SDS011;10548;47.504;8.248;2023-03-19T07:06:16;10.80;;;5.00;;
20776;SDS011;10548;47.504;8.248;2023-03-19T07:08:43;9.77;;;5.40;;
20776;SDS011;10548;47.504;8.248;2023-03-19T07:11:12;9.80;;;4.87;;
20776;SDS011;10548;47.504;8.248;2023-03-19T07:13:39;7.73;;;4.60;;
20776;SDS011;10548;47.504;8.248;2023-03-19T07:16:06;7.77;;;4.83;;
20776;SDS011;10548;47.504;8.248;2023-03-19T07:18:34;10.03;;;4.83;;
20776;SDS011;10548;47.504;8.248;2023-03-19T07:21:01;7.97;;;4.73;;
20776;SDS011;10548;47.504;8.248;2023-03-19T07:23:29;9.93;;;5.23;;
20776;SDS011;10548;47.504;8.248;2023-03-19T07:25:56;10.77;;;5.23;;
20776;SDS011;10548;47.504;8.248;2023-03-19T07:28:24;13.23;;;5.43;;
20776;SDS011;10548;47.504;8.248;2023-03-19T07:30:51;11.47;;;6.07;;
20776;SDS011;10548;47.504;8.248;2023-03-19T07:33:19;10.23;;;4.83;;
20776;SDS011;10548;47.504;8.248;2023-03-19T07:35:47;9.33;;;4.97;;
20776;SDS011;10548;47.504;8.248;2023-03-19T07:38:15;7.17;;;4.60;;
20776;SDS011;10548;47.504;8.248;2023-03-19T07:40:42;9.73;;;5.37;;
20776;SDS011;10548;47.504;8.248;2023-03-19T07:43:26;8.47;;;4.37;;
20776;SDS011;10548;47.504;8.248;2023-03-19T07:45:53;7.00;;;4.57;;
20776;SDS011;10548;47.504;8.248;2023-03-19T07:48:20;7.97;;;4.57;;
20776;SDS011;10548;47.504;8.248;2023-03-19T07:50:51;8.37;;;4.83;;
20776;SDS011;10548;47.504;8.248;2023-03-19T07:53:18;10.30;;;4.20;;
20776;SDS011;10548;47.504;8.248;2023-03-19T07:55:46;10.40;;;4.73;;
20776;SDS011;10548;47.504;8.248;2023-03-19T07:58:13;8.40;;;5.00;;
20776;SDS011;10548;47.504;8.248;2023-03-19T08:00:40;6.90;;;4.23;;
20776;SDS011;10548;47.504;8.248;2023-03-19T08:03:08;6.83;;;4.10;;
20776;SDS011;10548;47.504;8.248;2023-03-19T08:05:35;7.73;;;4.23;;
20776;SDS011;10548;47.504;8.248;2023-03-19T08:08:03;10.90;;;5.10;;
20776;SDS011;10548;47.504;8.248;2023-03-19T08:10:30;5.93;;;4.00;;
20776;SDS011;10548;47.504;8.248;2023-03-19T08:13:01;7.63;;;4.33;;
20776;SDS011;10548;47.504;8.248;2023-03-19T08:15:30;8.73;;;4.20;;
20776;SDS011;10548;47.504;8.248;2023-03-19T08:17:58;7.10;;;4.07;;
20776;SDS011;10548;47.504;8.248;2023-03-19T08:20:26;7.10;;;3.93;;
20776;SDS011;10548;47.504;8.248;2023-03-19T08:22:53;7.77;;;4.80;;
20776;SDS011;10548;47.504;8.248;2023-03-19T08:25:23;6.63;;;4.20;;
20776;SDS011;10548;47.504;8.248;2023-03-19T08:27:51;7.33;;;4.07;;
20776;SDS011;10548;47.504;8.248;2023-03-19T08:30:19;8.43;;;3.90;;
20776;SDS011;10548;47.504;8.248;2023-03-19T08:32:47;7.67;;;4.07;;
20776;SDS011;10548;47.504;8.248;2023-03-19T08:35:14;7.40;;;4.13;;
20776;SDS011;10548;47.504;8.248;2023-03-19T08:37:42;6.53;;;4.27;;
20776;SDS011;10548;47.504;8.248;2023-03-19T08:40:10;7.70;;;4.37;;
20776;SDS011;10548;47.504;8.248;2023-03-19T08:42:37;9.07;;;4.47;;
20776;SDS011;10548;47.504;8.248;2023-03-19T08:45:11;4.93;;;3.80;;
20776;SDS011;10548;47.504;8.248;2023-03-19T08:47:40;6.93;;;4.27;;
20776;SDS011;10548;47.504;8.248;2023-03-19T08:50:08;7.33;;;4.60;;
20776;SDS011;10548;47.504;8.248;2023-03-19T08:52:36;7.27;;;3.90;;
20776;SDS011;10548;47.504;8.248;2023-03-19T08:55:03;7.73;;;4.17;;
20776;SDS011;10548;47.504;8.248;2023-03-19T08:57:31;7.07;;;3.97;;
20776;SDS011;10548;47.504;8.248;2023-03-19T08:59:58;7.27;;;4.00;;
20776;SDS011;10548;47.504;8.248;2023-03-19T09:02:25;11.77;;;4.90;;
20776;SDS011;10548;47.504;8.248;2023-03-19T09:04:53;7.57;;;4.10;;
20776;SDS011;10548;47.504;8.248;2023-03-19T09:07:20;9.40;;;4.23;;
20776;SDS011;10548;47.504;8.248;2023-03-19T09:09:48;12.40;;;6.60;;
20776;SDS011;10548;47.504;8.248;2023-03-19T09:12:15;8.40;;;4.30;;
20776;SDS011;10548;47.504;8.248;2023-03-19T09:14:44;6.57;;;4.30;;
20776;SDS011;10548;47.504;8.248;2023-03-19T09:17:11;15.40;;;8.67;;
20776;SDS011;10548;47.504;8.248;2023-03-19T09:19:39;14.70;;;8.17;;
20776;SDS011;10548;47.504;8.248;2023-03-19T09:22:07;12.67;;;4.63;;
20776;SDS011;10548;47.504;8.248;2023-03-19T09:24:34;9.93;;;7.03;;
20776;SDS011;10548;47.504;8.248;2023-03-19T09:27:04;8.17;;;4.67;;
20776;SDS011;10548;47.504;8.248;2023-03-19T09:29:32;10.77;;;7.00;;
20776;SDS011;10548;47.504;8.248;2023-03-19T09:31:59;7.77;;;4.40;;
20776;SDS011;10548;47.504;8.248;2023-03-19T09:34:26;8.67;;;4.00;;
20776;SDS011;10548;47.504;8.248;2023-03-19T09:36:53;6.07;;;3.83;;
20776;SDS011;10548;47.504;8.248;2023-03-19T09:39:21;8.43;;;4.00;;
20776;SDS011;10548;47.504;8.248;2023-03-19T09:41:56;6.90;;;4.17;;
20776;SDS011;10548;47.504;8.248;2023-03-19T09:44:34;7.13;;;3.87;;
20776;SDS011;10548;47.504;8.248;2023-03-19T09:47:26;11.40;;;4.77;;
20776;SDS011;10548;47.504;8.248;2023-03-19T09:50:03;9.87;;;4.40;;
20776;SDS011;10548;47.504;8.248;2023-03-19T09:52:46;7.93;;;3.57;;
20776;SDS011;10548;47.504;8.248;2023-03-19T09:58:32;6.70;;;3.70;;
20776;SDS011;10548;47.504;8.248;2023-03-19T10:01:02;7.03;;;3.80;;
20776;SDS011;10548;47.504;8.248;2023-03-19T10:04:17;6.60;;;3.90;;
20776;SDS011;10548;47.504;8.248;2023-03-19T10:06:38;10.50;;;3.93;;
20776;SDS011;10548;47.504;8.248;2023-03-19T10:09:16;6.67;;;3.70;;
20776;SDS011;10548;47.504;8.248;2023-03-19T10:12:04;8.97;;;3.83;;
20776;SDS011;10548;47.504;8.248;2023-03-19T10:15:13;13.93;;;4.10;;
20776;SDS011;10548;47.504;8.248;2023-03-19T10:17:59;9.20;;;3.57;;
20776;SDS011;10548;47.504;8.248;2023-03-19T10:20:57;10.67;;;3.90;;
20776;SDS011;10548;47.504;8.248;2023-03-19T10:23:56;10.00;;;3.70;;
20776;SDS011;10548;47.504;8.248;2023-03-19T10:26:45;8.50;;;3.60;;
20776;SDS011;10548;47.504;8.248;2023-03-19T10:29:14;5.40;;;3.07;;
20776;SDS011;10548;47.504;8.248;2023-03-19T10:34:50;6.23;;;3.80;;
20776;SDS011;10548;47.504;8.248;2023-03-19T10:37:20;20.23;;;4.90;;
20776;SDS011;10548;47.504;8.248;2023-03-19T10:39:49;8.80;;;3.63;;
20776;SDS011;10548;47.504;8.248;2023-03-19T10:45:33;8.17;;;3.93;;
20776;SDS011;10548;47.504;8.248;2023-03-19T10:48:04;15.13;;;4.23;;
20776;SDS011;10548;47.504;8.248;2023-03-19T10:50:37;8.40;;;3.57;;
20776;SDS011;10548;47.504;8.248;2023-03-19T10:53:32;9.47;;;4.30;;
20776;SDS011;10548;47.504;8.248;2023-03-19T10:56:22;7.37;;;4.23;;
20776;SDS011;10548;47.504;8.248;2023-03-19T10:59:00;9.70;;;3.87;;
20776;SDS011;10548;47.504;8.248;2023-03-19T11:01:33;8.53;;;4.47;;
20776;SDS011;10548;47.504;8.248;2023-03-19T11:04:04;10.83;;;4.50;;
20776;SDS011;10548;47.504;8.248;2023-03-19T11:06:39;9.07;;;4.40;;
20776;SDS011;10548;47.504;8.248;2023-03-19T11:15:00;9.97;;;3.83;;
20776;SDS011;10548;47.504;8.248;2023-03-19T11:17:39;6.23;;;3.50;;
20776;SDS011;10548;47.504;8.248;2023-03-19T11:20:31;8.10;;;3.80;;
20776;SDS011;10548;47.504;8.248;2023-03-19T11:23:01;7.43;;;3.30;;
20776;SDS011;10548;47.504;8.248;2023-03-19T11:28:24;8.93;;;3.83;;
20776;SDS011;10548;47.504;8.248;2023-03-19T11:31:40;6.80;;;3.63;;
20776;SDS011;10548;47.504;8.248;2023-03-19T11:34:19;7.77;;;3.60;;
20776;SDS011;10548;47.504;8.248;2023-03-19T11:40:13;7.97;;;4.30;;
20776;SDS011;10548;47.504;8.248;2023-03-19T11:43:26;8.67;;;3.30;;
20776;SDS011;10548;47.504;8.248;2023-03-19T11:53:03;6.87;;;2.90;;
20776;SDS011;10548;47.504;8.248;2023-03-19T11:56:11;5.70;;;3.07;;
20776;SDS011;10548;47.504;8.248;2023-03-19T11:59:54;6.67;;;2.63;;
20776;SDS011;10548;47.504;8.248;2023-03-19T12:06:11;7.63;;;3.20;;
20776;SDS011;10548;47.504;8.248;2023-03-19T12:08:54;6.23;;;2.80;;
20776;SDS011;10548;47.504;8.248;2023-03-19T12:11:35;7.67;;;2.93;;
20776;SDS011;10548;47.504;8.248;2023-03-19T12:17:45;5.20;;;2.87;;
20776;SDS011;10548;47.504;8.248;2023-03-19T12:21:36;6.10;;;2.83;;
20776;SDS011;10548;47.504;8.248;2023-03-19T12:30:41;5.87;;;2.70;;
20776;SDS011;10548;47.504;8.248;2023-03-19T12:33:24;7.00;;;2.83;;
20776;SDS011;10548;47.504;8.248;2023-03-19T12:36:18;9.17;;;3.30;;
20776;SDS011;10548;47.504;8.248;2023-03-19T12:38:50;9.23;;;2.83;;
20776;SDS011;10548;47.504;8.248;2023-03-19T12:41:27;5.30;;;2.80;;
20776;SDS011;10548;47.504;8.248;2023-03-19T12:44:01;6.73;;;3.20;;
20776;SDS011;10548;47.504;8.248;2023-03-19T12:46:38;5.57;;;3.03;;
20776;SDS011;10548;47.504;8.248;2023-03-19T12:49:32;6.43;;;2.87;;
20776;SDS011;10548;47.504;8.248;2023-03-19T12:52:11;7.03;;;3.43;;
20776;SDS011;10548;47.504;8.248;2023-03-19T12:54:54;12.40;;;3.10;;
20776;SDS011;10548;47.504;8.248;2023-03-19T12:57:43;6.93;;;2.73;;
20776;SDS011;10548;47.504;8.248;2023-03-19T13:00:50;8.70;;;3.00;;
20776;SDS011;10548;47.504;8.248;2023-03-19T13:03:36;4.07;;;2.60;;
20776;SDS011;10548;47.504;8.248;2023-03-19T13:06:25;7.00;;;3.07;;
20776;SDS011;10548;47.504;8.248;2023-03-19T13:09:35;6.17;;;2.60;;
20776;SDS011;10548;47.504;8.248;2023-03-19T13:12:02;6.67;;;3.00;;
20776;SDS011;10548;47.504;8.248;2023-03-19T13:14:54;6.07;;;2.57;;
20776;SDS011;10548;47.504;8.248;2023-03-19T13:20:49;4.90;;;2.60;;
20776;SDS011;10548;47.504;8.248;2023-03-19T13:23:30;8.83;;;2.80;;
20776;SDS011;10548;47.504;8.248;2023-03-19T13:26:01;3.73;;;2.43;;
20776;SDS011;10548;47.504;8.248;2023-03-19T13:28:34;4.80;;;2.17;;
20776;SDS011;10548;47.504;8.248;2023-03-19T13:31:04;7.27;;;2.43;;
20776;SDS011;10548;47.504;8.248;2023-03-19T13:34:03;6.30;;;2.27;;
20776;SDS011;10548;47.504;8.248;2023-03-19T13:36:36;4.23;;;2.03;;
20776;SDS011;10548;47.504;8.248;2023-03-19T13:39:10;5.53;;;2.13;;
20776;SDS011;10548;47.504;8.248;2023-03-19T13:41:47;5.87;;;1.93;;
20776;SDS011;10548;47.504;8.248;2023-03-19T13:50:22;3.77;;;2.37;;
20776;SDS011;10548;47.504;8.248;2023-03-19T13:53:11;5.27;;;2.23;;
20776;SDS011;10548;47.504;8.248;2023-03-19T13:56:03;3.63;;;1.90;;
20776;SDS011;10548;47.504;8.248;2023-03-19T14:02:00;3.30;;;2.03;;
20776;SDS011;10548;47.504;8.248;2023-03-19T14:04:31;6.00;;;2.10;;
20776;SDS011;10548;47.504;8.248;2023-03-19T14:07:11;2.93;;;1.77;;
20776;SDS011;10548;47.504;8.248;2023-03-19T14:09:47;10.53;;;2.50;;
20776;SDS011;10548;47.504;8.248;2023-03-19T14:12:34;9.23;;;2.20;;
20776;SDS011;10548;47.504;8.248;2023-03-19T14:18:00;3.27;;;2.10;;
20776;SDS011;10548;47.504;8.248;2023-03-19T14:20:32;4.40;;;1.97;;
20776;SDS011;10548;47.504;8.248;2023-03-19T14:23:27;6.23;;;2.23;;
20776;SDS011;10548;47.504;8.248;2023-03-19T14:26:23;3.43;;;1.87;;
20776;SDS011;10548;47.504;8.248;2023-03-19T14:29:01;5.67;;;2.00;;
20776;SDS011;10548;47.504;8.248;2023-03-19T14:31:51;3.63;;;1.77;;
20776;SDS011;10548;47.504;8.248;2023-03-19T14:34:34;9.40;;;2.70;;
20776;SDS011;10548;47.504;8.248;2023-03-19T14:37:23;5.10;;;2.07;;
20776;SDS011;10548;47.504;8.248;2023-03-19T14:40:26;7.07;;;2.23;;
20776;SDS011;10548;47.504;8.248;2023-03-19T14:43:16;4.17;;;2.03;;
20776;SDS011;10548;47.504;8.248;2023-03-19T14:46:08;5.23;;;2.50;;
20776;SDS011;10548;47.504;8.248;2023-03-19T14:55:00;5.17;;;2.47;;
20776;SDS011;10548;47.504;8.248;2023-03-19T14:57:34;8.10;;;2.60;;
20776;SDS011;10548;47.504;8.248;2023-03-19T15:00:03;4.00;;;2.03;;
20776;SDS011;10548;47.504;8.248;2023-03-19T15:02:34;5.17;;;2.10;;
20776;SDS011;10548;47.504;8.248;2023-03-19T15:05:31;5.50;;;2.40;;
20776;SDS011;10548;47.504;8.248;2023-03-19T15:08:02;6.73;;;2.40;;
20776;SDS011;10548;47.504;8.248;2023-03-19T15:10:43;6.50;;;2.33;;
20776;SDS011;10548;47.504;8.248;2023-03-19T15:13:38;6.53;;;2.60;;
20776;SDS011;10548;47.504;8.248;2023-03-19T15:16:35;5.43;;;2.60;;
20776;SDS011;10548;47.504;8.248;2023-03-19T15:19:21;5.40;;;3.03;;
20776;SDS011;10548;47.504;8.248;2023-03-19T15:22:01;7.40;;;2.70;;
20776;SDS011;10548;47.504;8.248;2023-03-19T15:25:06;5.13;;;2.60;;
20776;SDS011;10548;47.504;8.248;2023-03-19T15:27:38;6.00;;;2.50;;
20776;SDS011;10548;47.504;8.248;2023-03-19T15:30:22;8.73;;;3.00;;
20776;SDS011;10548;47.504;8.248;2023-03-19T15:32:58;9.13;;;3.50;;
20776;SDS011;10548;47.504;8.248;2023-03-19T15:35:45;6.40;;;3.10;;
20776;SDS011;10548;47.504;8.248;2023-03-19T15:38:14;6.47;;;3.07;;
20776;SDS011;10548;47.504;8.248;2023-03-19T15:40:42;2.60;;;1.30;;
20776;SDS011;10548;47.504;8.248;2023-03-19T15:43:10;0.80;;;0.60;;
20776;SDS011;10548;47.504;8.248;2023-03-19T15:45:39;1.37;;;0.60;;
20776;SDS011;10548;47.504;8.248;2023-03-19T15:48:16;0.47;;;0.40;;
20776;SDS011;10548;47.504;8.248;2023-03-19T15:50:48;0.40;;;0.40;;
20776;SDS011;10548;47.504;8.248;2023-03-19T15:53:19;0.40;;;0.40;;
20776;SDS011;10548;47.504;8.248;2023-03-19T15:55:49;2.37;;;0.60;;
20776;SDS011;10548;47.504;8.248;2023-03-19T15:58:19;1.20;;;0.50;;
20776;SDS011;10548;47.504;8.248;2023-03-19T16:00:58;0.67;;;0.50;;
20776;SDS011;10548;47.504;8.248;2023-03-19T16:03:43;0.60;;;0.60;;
20776;SDS011;10548;47.504;8.248;2023-03-19T16:09:24;0.87;;;0.50;;
20776;SDS011;10548;47.504;8.248;2023-03-19T16:11:58;0.60;;;0.60;;
20776;SDS011;10548;47.504;8.248;2023-03-19T16:17:14;1.37;;;0.63;;
20776;SDS011;10548;47.504;8.248;2023-03-19T16:19:53;2.10;;;0.60;;
20776;SDS011;10548;47.504;8.248;2023-03-19T16:22:26;0.50;;;0.50;;
20776;SDS011;10548;47.504;8.248;2023-03-19T16:24:55;0.87;;;0.50;;
20776;SDS011;10548;47.504;8.248;2023-03-19T16:27:36;2.07;;;0.70;;
20776;SDS011;10548;47.504;8.248;2023-03-19T16:30:21;1.50;;;0.47;;
20776;SDS011;10548;47.504;8.248;2023-03-19T16:33:00;0.53;;;0.53;;
20776;SDS011;10548;47.504;8.248;2023-03-19T16:35:30;1.40;;;0.63;;
20776;SDS011;10548;47.504;8.248;2023-03-19T16:38:05;0.50;;;0.50;;